sensor_id;sensor_type;location;lat;lon;timestamp;P1;durP1;ratioP1;P2;durP2;ratioP2
16813;SDS011;8524;57.650;11.926;2023-07-13T00:00:09;6.53;;;2.53;;
16813;SDS011;8524;57.650;11.926;2023-07-13T00:02:39;5.47;;;2.23;;
16813;SDS011;8524;57.650;11.926;2023-07-13T00:05:06;4.27;;;1.90;;
16813;SDS011;8524;57.650;11.926;2023-07-13T00:07:33;6.73;;;2.60;;
16813;SDS011;8524;57.650;11.926;2023-07-13T00:10:01;6.03;;;2.43;;
16813;SDS011;8524;57.650;11.926;2023-07-13T00:12:29;5.07;;;2.47;;
16813;SDS011;8524;57.650;11.926;2023-07-13T00:14:58;5.67;;;2.37;;
16813;SDS011;8524;57.650;11.926;2023-07-13T00:17:27;5.70;;;2.40;;
16813;SDS011;8524;57.650;11.926;2023-07-13T00:19:56;7.23;;;2.73;;
16813;SDS011;8524;57.650;11.926;2023-07-13T00:22:23;10.00;;;2.73;;
16813;SDS011;8524;57.650;11.926;2023-07-13T00:24:51;6.33;;;2.53;;
16813;SDS011;8524;57.650;11.926;2023-07-13T00:27:21;8.03;;;2.50;;
16813;SDS011;8524;57.650;11.926;2023-07-13T00:29:48;7.13;;;2.67;;
16813;SDS011;8524;57.650;11.926;2023-07-13T00:32:15;3.90;;;2.50;;
16813;SDS011;8524;57.650;11.926;2023-07-13T00:34:42;3.77;;;2.27;;
16813;SDS011;8524;57.650;11.926;2023-07-13T00:37:11;7.33;;;2.90;;
16813;SDS011;8524;57.650;11.926;2023-07-13T00:39:38;7.10;;;2.53;;
16813;SDS011;8524;57.650;11.926;2023-07-13T00:42:05;5.33;;;2.50;;
16813;SDS011;8524;57.650;11.926;2023-07-13T00:44:32;5.97;;;3.10;;
16813;SDS011;8524;57.650;11.926;2023-07-13T00:46:59;8.23;;;3.10;;
16813;SDS011;8524;57.650;11.926;2023-07-13T00:49:27;5.13;;;2.50;;
16813;SDS011;8524;57.650;11.926;2023-07-13T00:51:57;6.50;;;2.87;;
16813;SDS011;8524;57.650;11.926;2023-07-13T00:54:29;8.77;;;2.87;;
16813;SDS011;8524;57.650;11.926;2023-07-13T00:56:59;8.63;;;2.90;;
16813;SDS011;8524;57.650;11.926;2023-07-13T00:59:28;5.87;;;2.77;;
16813;SDS011;8524;57.650;11.926;2023-07-13T01:01:56;7.30;;;2.90;;
16813;SDS011;8524;57.650;11.926;2023-07-13T01:04:24;5.07;;;2.67;;
16813;SDS011;8524;57.650;11.926;2023-07-13T01:06:51;6.17;;;2.63;;
16813;SDS011;8524;57.650;11.926;2023-07-13T01:09:19;7.83;;;3.20;;
16813;SDS011;8524;57.650;11.926;2023-07-13T01:11:47;5.63;;;2.50;;
16813;SDS011;8524;57.650;11.926;2023-07-13T01:14:15;7.57;;;2.83;;
16813;SDS011;8524;57.650;11.926;2023-07-13T01:16:44;6.40;;;3.10;;
16813;SDS011;8524;57.650;11.926;2023-07-13T01:19:15;6.87;;;3.20;;
16813;SDS011;8524;57.650;11.926;2023-07-13T01:22:04;4.77;;;2.93;;
16813;SDS011;8524;57.650;11.926;2023-07-13T01:24:34;8.10;;;3.33;;
16813;SDS011;8524;57.650;11.926;2023-07-13T01:27:02;7.07;;;3.27;;
16813;SDS011;8524;57.650;11.926;2023-07-13T01:29:31;8.20;;;3.50;;
16813;SDS011;8524;57.650;11.926;2023-07-13T01:31:59;8.40;;;3.23;;
16813;SDS011;8524;57.650;11.926;2023-07-13T01:34:26;9.23;;;3.60;;
16813;SDS011;8524;57.650;11.926;2023-07-13T01:36:53;5.83;;;2.90;;
16813;SDS011;8524;57.650;11.926;2023-07-13T01:39:22;5.33;;;2.93;;
16813;SDS011;8524;57.650;11.926;2023-07-13T01:41:50;7.73;;;2.73;;
16813;SDS011;8524;57.650;11.926;2023-07-13T01:44:17;5.63;;;2.70;;
16813;SDS011;8524;57.650;11.926;2023-07-13T01:46:44;7.10;;;2.93;;
16813;SDS011;8524;57.650;11.926;2023-07-13T01:49:11;6.63;;;3.13;;
16813;SDS011;8524;57.650;11.926;2023-07-13T01:51:38;9.77;;;2.90;;
16813;SDS011;8524;57.650;11.926;2023-07-13T01:54:05;8.67;;;3.30;;
16813;SDS011;8524;57.650;11.926;2023-07-13T01:56:33;6.97;;;3.00;;
16813;SDS011;8524;57.650;11.926;2023-07-13T01:59:00;4.97;;;2.70;;
16813;SDS011;8524;57.650;11.926;2023-07-13T02:01:27;8.40;;;3.27;;
16813;SDS011;8524;57.650;11.926;2023-07-13T02:03:54;7.73;;;3.20;;
16813;SDS011;8524;57.650;11.926;2023-07-13T02:06:21;6.93;;;3.03;;
16813;SDS011;8524;57.650;11.926;2023-07-13T02:08:48;6.47;;;3.30;;
16813;SDS011;8524;57.650;11.926;2023-07-13T02:11:15;8.37;;;3.47;;
16813;SDS011;8524;57.650;11.926;2023-07-13T02:13:44;7.57;;;3.23;;
16813;SDS011;8524;57.650;11.926;2023-07-13T02:16:11;11.63;;;3.53;;
16813;SDS011;8524;57.650;11.926;2023-07-13T02:18:38;9.53;;;3.03;;
16813;SDS011;8524;57.650;11.926;2023-07-13T02:21:05;5.53;;;3.03;;
16813;SDS011;8524;57.650;11.926;2023-07-13T02:23:32;8.40;;;3.13;;
16813;SDS011;8524;57.650;11.926;2023-07-13T02:26:00;9.63;;;3.30;;
16813;SDS011;8524;57.650;11.926;2023-07-13T02:28:28;5.97;;;3.07;;
16813;SDS011;8524;57.650;11.926;2023-07-13T02:31:03;7.53;;;2.80;;
16813;SDS011;8524;57.650;11.926;2023-07-13T02:33:31;6.93;;;2.97;;
16813;SDS011;8524;57.650;11.926;2023-07-13T02:35:57;5.37;;;2.90;;
16813;SDS011;8524;57.650;11.926;2023-07-13T02:38:24;10.33;;;3.60;;
16813;SDS011;8524;57.650;11.926;2023-07-13T02:40:52;9.33;;;3.53;;
16813;SDS011;8524;57.650;11.926;2023-07-13T02:43:19;9.17;;;3.67;;
16813;SDS011;8524;57.650;11.926;2023-07-13T02:45:46;6.87;;;3.27;;
16813;SDS011;8524;57.650;11.926;2023-07-13T02:48:14;9.43;;;3.53;;
16813;SDS011;8524;57.650;11.926;2023-07-13T02:50:41;8.80;;;3.17;;
16813;SDS011;8524;57.650;11.926;2023-07-13T02:53:10;5.50;;;2.80;;
16813;SDS011;8524;57.650;11.926;2023-07-13T02:55:37;6.50;;;3.27;;
16813;SDS011;8524;57.650;11.926;2023-07-13T02:58:05;8.23;;;3.20;;
16813;SDS011;8524;57.650;11.926;2023-07-13T03:00:32;7.65;;;3.20;;
16813;SDS011;8524;57.650;11.926;2023-07-13T03:03:00;9.33;;;3.40;;
16813;SDS011;8524;57.650;11.926;2023-07-13T03:05:28;8.73;;;3.63;;
16813;SDS011;8524;57.650;11.926;2023-07-13T03:07:55;6.97;;;3.70;;
16813;SDS011;8524;57.650;11.926;2023-07-13T03:10:23;6.47;;;3.40;;
16813;SDS011;8524;57.650;11.926;2023-07-13T03:12:50;6.67;;;3.50;;
16813;SDS011;8524;57.650;11.926;2023-07-13T03:15:17;8.87;;;3.70;;
16813;SDS011;8524;57.650;11.926;2023-07-13T03:17:44;6.27;;;3.40;;
16813;SDS011;8524;57.650;11.926;2023-07-13T03:20:12;9.67;;;3.53;;
16813;SDS011;8524;57.650;11.926;2023-07-13T03:22:40;7.07;;;3.70;;
16813;SDS011;8524;57.650;11.926;2023-07-13T03:25:08;6.70;;;3.60;;
16813;SDS011;8524;57.650;11.926;2023-07-13T03:27:35;6.50;;;3.47;;
16813;SDS011;8524;57.650;11.926;2023-07-13T03:30:03;6.50;;;3.23;;
16813;SDS011;8524;57.650;11.926;2023-07-13T03:32:31;7.90;;;3.63;;
16813;SDS011;8524;57.650;11.926;2023-07-13T03:34:58;8.43;;;3.87;;
16813;SDS011;8524;57.650;11.926;2023-07-13T03:37:26;10.13;;;3.70;;
16813;SDS011;8524;57.650;11.926;2023-07-13T03:39:54;6.57;;;3.00;;
16813;SDS011;8524;57.650;11.926;2023-07-13T03:42:21;11.70;;;3.83;;
16813;SDS011;8524;57.650;11.926;2023-07-13T03:44:48;7.57;;;3.00;;
16813;SDS011;8524;57.650;11.926;2023-07-13T03:47:17;6.63;;;3.13;;
16813;SDS011;8524;57.650;11.926;2023-07-13T03:49:44;9.13;;;3.20;;
16813;SDS011;8524;57.650;11.926;2023-07-13T03:52:12;6.93;;;3.10;;
16813;SDS011;8524;57.650;11.926;2023-07-13T03:54:39;8.93;;;3.23;;
16813;SDS011;8524;57.650;11.926;2023-07-13T03:57:07;9.90;;;3.23;;
16813;SDS011;8524;57.650;11.926;2023-07-13T03:59:34;9.87;;;2.97;;
16813;SDS011;8524;57.650;11.926;2023-07-13T04:02:02;6.20;;;2.80;;
16813;SDS011;8524;57.650;11.926;2023-07-13T04:04:30;7.10;;;2.93;;
16813;SDS011;8524;57.650;11.926;2023-07-13T04:06:57;7.33;;;3.13;;
16813;SDS011;8524;57.650;11.926;2023-07-13T04:09:24;6.77;;;3.13;;
16813;SDS011;8524;57.650;11.926;2023-07-13T04:11:51;6.00;;;2.80;;
16813;SDS011;8524;57.650;11.926;2023-07-13T04:14:20;7.13;;;3.10;;
16813;SDS011;8524;57.650;11.926;2023-07-13T04:16:47;7.27;;;3.40;;
16813;SDS011;8524;57.650;11.926;2023-07-13T04:19:14;6.90;;;2.80;;
16813;SDS011;8524;57.650;11.926;2023-07-13T04:21:41;6.20;;;2.90;;
16813;SDS011;8524;57.650;11.926;2023-07-13T04:24:08;5.07;;;2.70;;
16813;SDS011;8524;57.650;11.926;2023-07-13T04:26:35;7.50;;;3.13;;
16813;SDS011;8524;57.650;11.926;2023-07-13T04:29:03;7.77;;;2.90;;
16813;SDS011;8524;57.650;11.926;2023-07-13T04:31:32;7.07;;;2.87;;
16813;SDS011;8524;57.650;11.926;2023-07-13T04:33:59;6.10;;;3.03;;
16813;SDS011;8524;57.650;11.926;2023-07-13T04:36:29;7.27;;;3.13;;
16813;SDS011;8524;57.650;11.926;2023-07-13T04:38:56;6.10;;;3.23;;
16813;SDS011;8524;57.650;11.926;2023-07-13T04:41:23;6.13;;;2.67;;
16813;SDS011;8524;57.650;11.926;2023-07-13T04:43:50;5.67;;;2.40;;
16813;SDS011;8524;57.650;11.926;2023-07-13T04:46:17;8.70;;;3.17;;
16813;SDS011;8524;57.650;11.926;2023-07-13T04:48:46;8.33;;;3.20;;
16813;SDS011;8524;57.650;11.926;2023-07-13T04:51:16;5.90;;;2.67;;
16813;SDS011;8524;57.650;11.926;2023-07-13T04:53:43;6.63;;;3.50;;
16813;SDS011;8524;57.650;11.926;2023-07-13T04:56:10;9.80;;;3.00;;
16813;SDS011;8524;57.650;11.926;2023-07-13T04:58:37;6.13;;;2.23;;
16813;SDS011;8524;57.650;11.926;2023-07-13T05:01:05;6.97;;;3.10;;
16813;SDS011;8524;57.650;11.926;2023-07-13T05:03:34;7.60;;;3.00;;
16813;SDS011;8524;57.650;11.926;2023-07-13T05:06:03;6.00;;;2.70;;
16813;SDS011;8524;57.650;11.926;2023-07-13T05:08:32;5.60;;;2.60;;
16813;SDS011;8524;57.650;11.926;2023-07-13T05:10:59;5.67;;;2.77;;
16813;SDS011;8524;57.650;11.926;2023-07-13T05:13:27;6.37;;;2.50;;
16813;SDS011;8524;57.650;11.926;2023-07-13T05:15:58;6.97;;;2.40;;
16813;SDS011;8524;57.650;11.926;2023-07-13T05:18:26;7.15;;;3.03;;
16813;SDS011;8524;57.650;11.926;2023-07-13T05:20:59;5.90;;;2.70;;
16813;SDS011;8524;57.650;11.926;2023-07-13T05:23:30;7.40;;;3.03;;
16813;SDS011;8524;57.650;11.926;2023-07-13T05:25:57;9.17;;;2.93;;
16813;SDS011;8524;57.650;11.926;2023-07-13T05:28:25;6.50;;;2.73;;
16813;SDS011;8524;57.650;11.926;2023-07-13T05:30:52;7.87;;;2.90;;
16813;SDS011;8524;57.650;11.926;2023-07-13T05:33:20;6.50;;;2.70;;
16813;SDS011;8524;57.650;11.926;2023-07-13T05:35:47;6.17;;;2.43;;
16813;SDS011;8524;57.650;11.926;2023-07-13T05:38:14;5.18;;;2.45;;
16813;SDS011;8524;57.650;11.926;2023-07-13T05:40:43;6.73;;;2.90;;
16813;SDS011;8524;57.650;11.926;2023-07-13T05:43:10;4.40;;;2.33;;
16813;SDS011;8524;57.650;11.926;2023-07-13T05:45:37;3.83;;;2.30;;
16813;SDS011;8524;57.650;11.926;2023-07-13T05:48:05;5.03;;;2.07;;
16813;SDS011;8524;57.650;11.926;2023-07-13T05:50:32;5.53;;;2.37;;
16813;SDS011;8524;57.650;11.926;2023-07-13T05:52:59;5.50;;;2.60;;
16813;SDS011;8524;57.650;11.926;2023-07-13T05:55:26;6.77;;;2.43;;
16813;SDS011;8524;57.650;11.926;2023-07-13T05:57:55;8.50;;;2.90;;
16813;SDS011;8524;57.650;11.926;2023-07-13T06:00:23;4.90;;;2.37;;
16813;SDS011;8524;57.650;11.926;2023-07-13T06:02:50;3.90;;;2.60;;
16813;SDS011;8524;57.650;11.926;2023-07-13T06:05:17;6.77;;;2.43;;
16813;SDS011;8524;57.650;11.926;2023-07-13T06:07:44;7.03;;;2.77;;
16813;SDS011;8524;57.650;11.926;2023-07-13T06:10:11;5.37;;;2.50;;
16813;SDS011;8524;57.650;11.926;2023-07-13T06:12:39;6.07;;;2.37;;
16813;SDS011;8524;57.650;11.926;2023-07-13T06:15:08;5.33;;;2.40;;
16813;SDS011;8524;57.650;11.926;2023-07-13T06:17:35;6.60;;;2.53;;
16813;SDS011;8524;57.650;11.926;2023-07-13T06:20:02;5.97;;;2.83;;
16813;SDS011;8524;57.650;11.926;2023-07-13T06:22:30;6.43;;;2.80;;
16813;SDS011;8524;57.650;11.926;2023-07-13T06:24:57;5.37;;;2.70;;
16813;SDS011;8524;57.650;11.926;2023-07-13T06:27:24;5.20;;;2.30;;
16813;SDS011;8524;57.650;11.926;2023-07-13T06:29:51;5.07;;;3.00;;
16813;SDS011;8524;57.650;11.926;2023-07-13T06:32:21;7.43;;;2.80;;
16813;SDS011;8524;57.650;11.926;2023-07-13T06:34:48;6.37;;;2.87;;
16813;SDS011;8524;57.650;11.926;2023-07-13T06:37:16;6.27;;;2.97;;
16813;SDS011;8524;57.650;11.926;2023-07-13T06:39:43;5.97;;;2.80;;
16813;SDS011;8524;57.650;11.926;2023-07-13T06:42:10;7.70;;;3.10;;
16813;SDS011;8524;57.650;11.926;2023-07-13T06:44:37;9.13;;;3.30;;
16813;SDS011;8524;57.650;11.926;2023-07-13T06:47:05;6.70;;;2.77;;
16813;SDS011;8524;57.650;11.926;2023-07-13T06:49:33;6.80;;;2.67;;
16813;SDS011;8524;57.650;11.926;2023-07-13T06:52:00;5.93;;;2.97;;
16813;SDS011;8524;57.650;11.926;2023-07-13T06:54:27;5.60;;;2.87;;
16813;SDS011;8524;57.650;11.926;2023-07-13T06:56:54;6.57;;;2.40;;
16813;SDS011;8524;57.650;11.926;2023-07-13T06:59:21;4.93;;;2.50;;
16813;SDS011;8524;57.650;11.926;2023-07-13T07:01:48;4.97;;;2.43;;
16813;SDS011;8524;57.650;11.926;2023-07-13T07:04:15;5.83;;;2.37;;
16813;SDS011;8524;57.650;11.926;2023-07-13T07:06:44;6.17;;;2.30;;
16813;SDS011;8524;57.650;11.926;2023-07-13T07:09:11;5.07;;;2.40;;
16813;SDS011;8524;57.650;11.926;2023-07-13T07:11:38;4.97;;;2.30;;
16813;SDS011;8524;57.650;11.926;2023-07-13T07:14:07;9.38;;;2.85;;
16813;SDS011;8524;57.650;11.926;2023-07-13T07:16:34;5.90;;;2.50;;
16813;SDS011;8524;57.650;11.926;2023-07-13T07:19:01;5.73;;;2.80;;
16813;SDS011;8524;57.650;11.926;2023-07-13T07:21:28;5.85;;;3.00;;
16813;SDS011;8524;57.650;11.926;2023-07-13T07:23:57;9.70;;;3.30;;
16813;SDS011;8524;57.650;11.926;2023-07-13T07:26:25;6.77;;;2.93;;
16813;SDS011;8524;57.650;11.926;2023-07-13T07:28:52;6.27;;;2.70;;
16813;SDS011;8524;57.650;11.926;2023-07-13T07:31:21;6.03;;;2.60;;
16813;SDS011;8524;57.650;11.926;2023-07-13T07:33:48;5.37;;;2.60;;
16813;SDS011;8524;57.650;11.926;2023-07-13T07:36:15;4.43;;;2.37;;
16813;SDS011;8524;57.650;11.926;2023-07-13T07:38:42;5.93;;;2.43;;
16813;SDS011;8524;57.650;11.926;2023-07-13T07:41:11;4.90;;;1.63;;
16813;SDS011;8524;57.650;11.926;2023-07-13T07:43:39;4.30;;;2.10;;
16813;SDS011;8524;57.650;11.926;2023-07-13T07:46:08;4.30;;;1.80;;
16813;SDS011;8524;57.650;11.926;2023-07-13T07:48:35;3.77;;;1.80;;
16813;SDS011;8524;57.650;11.926;2023-07-13T07:51:02;5.17;;;2.17;;
16813;SDS011;8524;57.650;11.926;2023-07-13T07:53:29;3.93;;;2.10;;
16813;SDS011;8524;57.650;11.926;2023-07-13T07:55:56;5.47;;;2.47;;
16813;SDS011;8524;57.650;11.926;2023-07-13T07:58:25;5.80;;;2.10;;
16813;SDS011;8524;57.650;11.926;2023-07-13T08:00:52;4.60;;;1.93;;
16813;SDS011;8524;57.650;11.926;2023-07-13T08:03:19;5.87;;;1.80;;
16813;SDS011;8524;57.650;11.926;2023-07-13T08:05:46;4.30;;;1.70;;
16813;SDS011;8524;57.650;11.926;2023-07-13T08:08:13;3.97;;;1.93;;
16813;SDS011;8524;57.650;11.926;2023-07-13T08:10:40;3.70;;;1.70;;
16813;SDS011;8524;57.650;11.926;2023-07-13T08:13:07;5.67;;;1.80;;
16813;SDS011;8524;57.650;11.926;2023-07-13T08:15:35;5.17;;;1.70;;
16813;SDS011;8524;57.650;11.926;2023-07-13T08:18:03;5.03;;;1.90;;
16813;SDS011;8524;57.650;11.926;2023-07-13T08:20:30;3.80;;;1.67;;
16813;SDS011;8524;57.650;11.926;2023-07-13T08:22:57;3.30;;;1.60;;
16813;SDS011;8524;57.650;11.926;2023-07-13T08:25:24;4.27;;;1.60;;
16813;SDS011;8524;57.650;11.926;2023-07-13T08:27:51;3.33;;;1.40;;
16813;SDS011;8524;57.650;11.926;2023-07-13T08:30:18;2.80;;;1.80;;
16813;SDS011;8524;57.650;11.926;2023-07-13T08:32:47;4.17;;;1.70;;
16813;SDS011;8524;57.650;11.926;2023-07-13T08:35:14;2.57;;;1.37;;
16813;SDS011;8524;57.650;11.926;2023-07-13T08:37:42;3.78;;;1.80;;
16813;SDS011;8524;57.650;11.926;2023-07-13T08:40:09;4.17;;;1.53;;
16813;SDS011;8524;57.650;11.926;2023-07-13T08:42:37;4.07;;;2.13;;
16813;SDS011;8524;57.650;11.926;2023-07-13T08:45:12;3.43;;;1.60;;
16813;SDS011;8524;57.650;11.926;2023-07-13T08:47:44;5.13;;;1.63;;
16813;SDS011;8524;57.650;11.926;2023-07-13T08:50:19;2.80;;;1.50;;
16813;SDS011;8524;57.650;11.926;2023-07-13T08:52:50;4.70;;;1.80;;
16813;SDS011;8524;57.650;11.926;2023-07-13T08:55:18;5.70;;;1.97;;
16813;SDS011;8524;57.650;11.926;2023-07-13T08:57:59;6.30;;;1.97;;
16813;SDS011;8524;57.650;11.926;2023-07-13T09:00:33;4.20;;;1.90;;
16813;SDS011;8524;57.650;11.926;2023-07-13T09:03:07;6.60;;;1.97;;
16813;SDS011;8524;57.650;11.926;2023-07-13T09:05:43;3.63;;;1.60;;
16813;SDS011;8524;57.650;11.926;2023-07-13T09:08:21;3.13;;;1.80;;
16813;SDS011;8524;57.650;11.926;2023-07-13T09:11:00;5.03;;;1.97;;
16813;SDS011;8524;57.650;11.926;2023-07-13T09:13:35;4.23;;;1.70;;
16813;SDS011;8524;57.650;11.926;2023-07-13T09:16:08;3.80;;;1.73;;
16813;SDS011;8524;57.650;11.926;2023-07-13T09:18:38;3.83;;;2.00;;
16813;SDS011;8524;57.650;11.926;2023-07-13T09:21:10;5.23;;;1.83;;
16813;SDS011;8524;57.650;11.926;2023-07-13T09:23:41;4.47;;;1.90;;
16813;SDS011;8524;57.650;11.926;2023-07-13T09:26:10;3.53;;;1.73;;
16813;SDS011;8524;57.650;11.926;2023-07-13T09:28:41;3.77;;;1.80;;
16813;SDS011;8524;57.650;11.926;2023-07-13T09:31:11;4.90;;;1.93;;
16813;SDS011;8524;57.650;11.926;2023-07-13T09:33:42;3.07;;;1.57;;
16813;SDS011;8524;57.650;11.926;2023-07-13T09:36:17;2.40;;;1.67;;
16813;SDS011;8524;57.650;11.926;2023-07-13T09:38:46;4.00;;;1.90;;
16813;SDS011;8524;57.650;11.926;2023-07-13T09:41:19;4.67;;;1.97;;
16813;SDS011;8524;57.650;11.926;2023-07-13T09:44:09;3.87;;;1.80;;
16813;SDS011;8524;57.650;11.926;2023-07-13T09:46:37;4.83;;;2.27;;
16813;SDS011;8524;57.650;11.926;2023-07-13T09:49:08;4.43;;;1.87;;
16813;SDS011;8524;57.650;11.926;2023-07-13T09:51:36;4.23;;;1.90;;
16813;SDS011;8524;57.650;11.926;2023-07-13T09:54:04;5.57;;;2.33;;
16813;SDS011;8524;57.650;11.926;2023-07-13T09:56:31;3.87;;;1.90;;
16813;SDS011;8524;57.650;11.926;2023-07-13T09:58:58;4.23;;;1.93;;
16813;SDS011;8524;57.650;11.926;2023-07-13T10:01:32;5.73;;;1.70;;
16813;SDS011;8524;57.650;11.926;2023-07-13T10:04:01;3.83;;;1.80;;
16813;SDS011;8524;57.650;11.926;2023-07-13T10:06:38;4.87;;;1.90;;
16813;SDS011;8524;57.650;11.926;2023-07-13T10:09:08;4.43;;;1.97;;
16813;SDS011;8524;57.650;11.926;2023-07-13T10:11:36;4.70;;;1.90;;
16813;SDS011;8524;57.650;11.926;2023-07-13T10:14:09;5.57;;;2.13;;
16813;SDS011;8524;57.650;11.926;2023-07-13T10:16:39;5.60;;;1.90;;
16813;SDS011;8524;57.650;11.926;2023-07-13T10:19:10;4.17;;;1.80;;
16813;SDS011;8524;57.650;11.926;2023-07-13T10:21:43;5.43;;;1.90;;
16813;SDS011;8524;57.650;11.926;2023-07-13T10:24:18;4.73;;;2.03;;
16813;SDS011;8524;57.650;11.926;2023-07-13T10:26:49;4.03;;;2.13;;
16813;SDS011;8524;57.650;11.926;2023-07-13T10:29:21;5.47;;;2.10;;
16813;SDS011;8524;57.650;11.926;2023-07-13T10:31:52;4.60;;;1.80;;
16813;SDS011;8524;57.650;11.926;2023-07-13T10:34:19;4.77;;;2.00;;
16813;SDS011;8524;57.650;11.926;2023-07-13T10:36:48;3.70;;;2.00;;
16813;SDS011;8524;57.650;11.926;2023-07-13T10:39:18;3.07;;;1.60;;
16813;SDS011;8524;57.650;11.926;2023-07-13T10:41:48;5.40;;;2.20;;
16813;SDS011;8524;57.650;11.926;2023-07-13T10:44:21;5.17;;;2.07;;
16813;SDS011;8524;57.650;11.926;2023-07-13T10:46:51;3.60;;;2.07;;
16813;SDS011;8524;57.650;11.926;2023-07-13T10:49:23;3.80;;;1.80;;
16813;SDS011;8524;57.650;11.926;2023-07-13T10:51:54;4.23;;;1.70;;
16813;SDS011;8524;57.650;11.926;2023-07-13T10:54:22;4.43;;;1.50;;
16813;SDS011;8524;57.650;11.926;2023-07-13T10:57:06;4.03;;;1.60;;
16813;SDS011;8524;57.650;11.926;2023-07-13T10:59:42;5.50;;;1.77;;
16813;SDS011;8524;57.650;11.926;2023-07-13T11:02:15;5.27;;;1.90;;
16813;SDS011;8524;57.650;11.926;2023-07-13T11:04:52;5.37;;;1.67;;
16813;SDS011;8524;57.650;11.926;2023-07-13T11:07:22;3.23;;;1.50;;
16813;SDS011;8524;57.650;11.926;2023-07-13T11:09:53;2.97;;;1.20;;
16813;SDS011;8524;57.650;11.926;2023-07-13T11:15:30;4.53;;;1.40;;
16813;SDS011;8524;57.650;11.926;2023-07-13T11:18:02;2.72;;;1.40;;
16813;SDS011;8524;57.650;11.926;2023-07-13T11:20:31;3.17;;;1.40;;
16813;SDS011;8524;57.650;11.926;2023-07-13T11:25:55;3.80;;;1.57;;
16813;SDS011;8524;57.650;11.926;2023-07-13T11:28:23;4.17;;;1.30;;
16813;SDS011;8524;57.650;11.926;2023-07-13T11:33:52;4.07;;;1.40;;
16813;SDS011;8524;57.650;11.926;2023-07-13T11:36:23;1.90;;;0.90;;
16813;SDS011;8524;57.650;11.926;2023-07-13T11:38:59;3.73;;;1.30;;
16813;SDS011;8524;57.650;11.926;2023-07-13T11:41:31;2.60;;;1.07;;
16813;SDS011;8524;57.650;11.926;2023-07-13T11:44:02;3.77;;;1.27;;
16813;SDS011;8524;57.650;11.926;2023-07-13T11:46:33;2.93;;;1.50;;
16813;SDS011;8524;57.650;11.926;2023-07-13T11:49:00;4.70;;;1.80;;
16813;SDS011;8524;57.650;11.926;2023-07-13T11:51:31;3.70;;;1.70;;
16813;SDS011;8524;57.650;11.926;2023-07-13T11:54:03;3.80;;;1.53;;
16813;SDS011;8524;57.650;11.926;2023-07-13T11:56:32;4.00;;;1.70;;
16813;SDS011;8524;57.650;11.926;2023-07-13T11:58:59;3.53;;;1.73;;
16813;SDS011;8524;57.650;11.926;2023-07-13T12:01:32;3.00;;;1.70;;
16813;SDS011;8524;57.650;11.926;2023-07-13T12:04:00;4.90;;;1.53;;
16813;SDS011;8524;57.650;11.926;2023-07-13T12:06:29;4.00;;;1.50;;
16813;SDS011;8524;57.650;11.926;2023-07-13T12:08:58;3.57;;;1.30;;
16813;SDS011;8524;57.650;11.926;2023-07-13T12:11:27;2.75;;;1.20;;
16813;SDS011;8524;57.650;11.926;2023-07-13T12:13:54;5.43;;;1.63;;
16813;SDS011;8524;57.650;11.926;2023-07-13T12:16:26;4.47;;;1.30;;
16813;SDS011;8524;57.650;11.926;2023-07-13T12:18:55;2.40;;;1.17;;
16813;SDS011;8524;57.650;11.926;2023-07-13T12:21:24;1.30;;;0.80;;
16813;SDS011;8524;57.650;11.926;2023-07-13T12:23:56;1.80;;;1.00;;
16813;SDS011;8524;57.650;11.926;2023-07-13T12:26:23;1.33;;;0.70;;
16813;SDS011;8524;57.650;11.926;2023-07-13T12:28:53;1.53;;;0.67;;
16813;SDS011;8524;57.650;11.926;2023-07-13T12:31:26;1.07;;;0.70;;
16813;SDS011;8524;57.650;11.926;2023-07-13T12:33:58;2.30;;;0.80;;
16813;SDS011;8524;57.650;11.926;2023-07-13T12:36:29;2.23;;;0.87;;
16813;SDS011;8524;57.650;11.926;2023-07-13T12:39:00;2.57;;;1.00;;
16813;SDS011;8524;57.650;11.926;2023-07-13T12:41:31;2.77;;;0.90;;
16813;SDS011;8524;57.650;11.926;2023-07-13T12:44:01;4.13;;;0.90;;
16813;SDS011;8524;57.650;11.926;2023-07-13T12:46:28;1.23;;;0.70;;
16813;SDS011;8524;57.650;11.926;2023-07-13T12:48:56;1.90;;;0.83;;
16813;SDS011;8524;57.650;11.926;2023-07-13T12:51:25;1.63;;;0.90;;
16813;SDS011;8524;57.650;11.926;2023-07-13T12:53:56;1.33;;;0.63;;
16813;SDS011;8524;57.650;11.926;2023-07-13T12:56:32;2.03;;;0.80;;
16813;SDS011;8524;57.650;11.926;2023-07-13T12:59:02;1.83;;;0.90;;
16813;SDS011;8524;57.650;11.926;2023-07-13T13:01:31;2.40;;;0.90;;
16813;SDS011;8524;57.650;11.926;2023-07-13T13:04:02;2.10;;;0.87;;
16813;SDS011;8524;57.650;11.926;2023-07-13T13:06:32;2.37;;;1.00;;
16813;SDS011;8524;57.650;11.926;2023-07-13T13:09:01;2.10;;;1.00;;
16813;SDS011;8524;57.650;11.926;2023-07-13T13:11:29;3.37;;;1.00;;
16813;SDS011;8524;57.650;11.926;2023-07-13T13:13:57;0.93;;;0.70;;
16813;SDS011;8524;57.650;11.926;2023-07-13T13:16:30;2.93;;;0.93;;
16813;SDS011;8524;57.650;11.926;2023-07-13T13:19:00;1.63;;;0.77;;
16813;SDS011;8524;57.650;11.926;2023-07-13T13:21:36;3.05;;;1.08;;
16813;SDS011;8524;57.650;11.926;2023-07-13T13:24:04;2.67;;;0.93;;
16813;SDS011;8524;57.650;11.926;2023-07-13T13:26:37;1.40;;;0.90;;
16813;SDS011;8524;57.650;11.926;2023-07-13T13:29:08;1.40;;;1.00;;
16813;SDS011;8524;57.650;11.926;2023-07-13T13:31:40;2.77;;;1.10;;
16813;SDS011;8524;57.650;11.926;2023-07-13T13:34:08;1.43;;;0.90;;
16813;SDS011;8524;57.650;11.926;2023-07-13T13:36:36;1.00;;;0.77;;
16813;SDS011;8524;57.650;11.926;2023-07-13T13:39:05;1.40;;;0.70;;
16813;SDS011;8524;57.650;11.926;2023-07-13T13:41:44;2.45;;;0.93;;
16813;SDS011;8524;57.650;11.926;2023-07-13T13:44:12;1.37;;;0.73;;
16813;SDS011;8524;57.650;11.926;2023-07-13T13:46:45;2.23;;;0.87;;
16813;SDS011;8524;57.650;11.926;2023-07-13T13:49:14;1.83;;;1.00;;
16813;SDS011;8524;57.650;11.926;2023-07-13T13:51:43;1.30;;;1.00;;
16813;SDS011;8524;57.650;11.926;2023-07-13T13:54:11;1.70;;;0.93;;
16813;SDS011;8524;57.650;11.926;2023-07-13T13:56:41;1.10;;;0.80;;
16813;SDS011;8524;57.650;11.926;2023-07-13T13:59:09;2.67;;;0.93;;
16813;SDS011;8524;57.650;11.926;2023-07-13T14:01:36;1.23;;;0.80;;
16813;SDS011;8524;57.650;11.926;2023-07-13T14:04:06;1.63;;;1.00;;
16813;SDS011;8524;57.650;11.926;2023-07-13T14:06:36;1.27;;;0.90;;
16813;SDS011;8524;57.650;11.926;2023-07-13T14:09:04;2.03;;;1.00;;
16813;SDS011;8524;57.650;11.926;2023-07-13T14:11:35;2.53;;;1.00;;
16813;SDS011;8524;57.650;11.926;2023-07-13T14:14:02;2.83;;;1.20;;
16813;SDS011;8524;57.650;11.926;2023-07-13T14:16:29;1.53;;;0.90;;
16813;SDS011;8524;57.650;11.926;2023-07-13T14:18:59;1.47;;;0.87;;
16813;SDS011;8524;57.650;11.926;2023-07-13T14:21:28;1.87;;;0.87;;
16813;SDS011;8524;57.650;11.926;2023-07-13T14:23:56;2.70;;;0.90;;
16813;SDS011;8524;57.650;11.926;2023-07-13T14:26:23;1.27;;;0.80;;
16813;SDS011;8524;57.650;11.926;2023-07-13T14:28:53;2.10;;;0.83;;
16813;SDS011;8524;57.650;11.926;2023-07-13T14:31:22;1.83;;;0.80;;
16813;SDS011;8524;57.650;11.926;2023-07-13T14:33:51;1.33;;;0.90;;
16813;SDS011;8524;57.650;11.926;2023-07-13T14:36:23;2.40;;;0.90;;
16813;SDS011;8524;57.650;11.926;2023-07-13T14:38:56;2.23;;;0.70;;
16813;SDS011;8524;57.650;11.926;2023-07-13T14:41:24;2.23;;;0.80;;
16813;SDS011;8524;57.650;11.926;2023-07-13T14:43:51;1.63;;;0.80;;
16813;SDS011;8524;57.650;11.926;2023-07-13T14:46:23;2.73;;;1.00;;
16813;SDS011;8524;57.650;11.926;2023-07-13T14:48:58;3.95;;;1.10;;
16813;SDS011;8524;57.650;11.926;2023-07-13T14:51:30;2.17;;;1.10;;
16813;SDS011;8524;57.650;11.926;2023-07-13T14:54:01;1.93;;;0.80;;
16813;SDS011;8524;57.650;11.926;2023-07-13T14:56:31;2.10;;;0.90;;
16813;SDS011;8524;57.650;11.926;2023-07-13T14:58:58;1.37;;;0.80;;
16813;SDS011;8524;57.650;11.926;2023-07-13T15:01:25;1.30;;;0.70;;
16813;SDS011;8524;57.650;11.926;2023-07-13T15:03:52;1.97;;;0.93;;
16813;SDS011;8524;57.650;11.926;2023-07-13T15:06:19;1.33;;;0.80;;